Howard Landing, California
Current Conditions -  °F | °C
As of 7:58 PM on Saturday 20 Dec 2014 (Local Time) from KSUU Reporting Station
Overcast Overcast  
Wind Chill: 56°   Ceiling: 2700
Heat Index: 56°   Visibility: 10mi
Dew Point: 53°   Wind: 7mph
Humidity: 89%   Direction: 150°SSE
Pressure: 30.21"   Gusts: NA
Location:  38.2298°N, 121.579°W
Report Text: KSUU 210358Z AUTO 15006KT 10SM OVC027 13/12 A3021 RMK AO2 SLP237 T01340116 $
Loading
Personal Weather Stations






























Interactive Weather Map New forecast layout! Learn more

10-Day Weather Forecast

Advertisements
Track Severe Weather on mobile